»·PEaware :: N572JA L70-KAVX

N572JA :: L70-KAVX

FLIGHT INFORMATION

Flight Status: Arrived
Operator: Privately registered:
United States
More flights under this callsign
Pilot: John A. (16554)
Aircraft: CESSNA 172 SKYHAWK
(C172)
More flights by this aircraft type
Origin: L70 Agua Dulce
United States
Destination: KAVX Catalina
United States
More flights between these airports :: More routes between these airports
Route:
File this flight plan on PilotEdge
Remarks:
Altitude:
(Current/Filed)
10,500ft
Speed:
(Current/Filed)
110kts
Departed: 22-Oct-17 06:13 PM
Arrived: 22-Oct-17 06:59 PM
Distance/Time
Traveled:
66nm/0:46
Distance/Time
To Go:
Arrived

Flight Plot

Page will automatically refresh every two minutes.

Flight plan parsing failed; only flown route is shown


Map Options




Map Legend


Flown Route
Filed Route
Departure Airport
Arrival Airport
Navaid (VOR, NDB)
Fix

Horizontal Profiles

Position Reports

Time Latitude Longitude Heading Altitude Ground
Speed
22-Oct-17 18:15 34.506282 -118.307443 318 2669ft 0kts
22-Oct-17 18:16 34.506282 -118.307443 318 2669ft 0kts
22-Oct-17 18:17 34.507034 -118.306739 12 2669ft 0kts
22-Oct-17 18:18 34.499669 -118.320531 238 2967ft 78kts
22-Oct-17 18:19 34.500305 -118.341919 334 3651ft 83kts
22-Oct-17 18:20 34.522683 -118.351635 344 4424ft 88kts
22-Oct-17 18:21 34.544525 -118.357050 359 5278ft 82kts
22-Oct-17 18:22 34.567615 -118.348970 55 5881ft 95kts
22-Oct-17 18:23 34.551204 -118.327819 167 6469ft 104kts
22-Oct-17 18:24 34.522238 -118.327763 179 7066ft 103kts
22-Oct-17 18:25 34.493756 -118.327934 179 7661ft 101kts
22-Oct-17 18:26 34.466006 -118.328448 182 8254ft 98kts
22-Oct-17 18:27 34.439128 -118.329972 182 8846ft 95kts
22-Oct-17 18:28 34.413186 -118.331352 182 9439ft 91kts
22-Oct-17 18:29 34.388690 -118.332578 182 10025ft 85kts
22-Oct-17 18:30 34.364102 -118.333825 182 10377ft 105kts
22-Oct-17 18:31 34.337291 -118.335374 182 10362ft 122kts
22-Oct-17 18:32 34.299966 -118.337535 182 10500ft 105kts
22-Oct-17 18:33 34.274801 -118.339016 182 10510ft 111kts
22-Oct-17 18:34 34.242147 -118.341027 182 10502ft 121kts
22-Oct-17 18:35 34.208421 -118.343133 182 10500ft 122kts
22-Oct-17 18:36 34.174531 -118.345173 182 10500ft 122kts
22-Oct-17 18:37 34.140864 -118.346715 182 10499ft 121kts
22-Oct-17 18:38 34.107248 -118.348252 182 10499ft 121kts
22-Oct-17 18:39 34.073658 -118.349793 182 10498ft 121kts
22-Oct-17 18:40 34.040007 -118.351322 182 10497ft 121kts
22-Oct-17 18:41 34.006365 -118.352829 182 10495ft 121kts
22-Oct-17 18:42 33.972654 -118.354320 182 10493ft 121kts
22-Oct-17 18:43 33.938919 -118.355797 182 10492ft 121kts
22-Oct-17 18:44 33.905223 -118.357262 182 10490ft 121kts
22-Oct-17 18:45 33.871740 -118.358725 182 10497ft 120kts
22-Oct-17 18:46 33.838210 -118.360203 182 10500ft 121kts
22-Oct-17 18:47 33.804874 -118.357137 160 10497ft 122kts
22-Oct-17 18:48 33.772694 -118.344236 161 10493ft 122kts
22-Oct-17 18:49 33.740423 -118.331338 161 10491ft 122kts
22-Oct-17 18:50 33.708110 -118.318425 161 10491ft 122kts
22-Oct-17 18:51 33.675863 -118.305536 161 10491ft 122kts
22-Oct-17 18:52 33.643721 -118.292684 161 10491ft 122kts
22-Oct-17 18:53 33.612175 -118.279985 161 10197ft 112kts
22-Oct-17 18:54 33.586072 -118.269268 161 9621ft 89kts
22-Oct-17 18:55 33.562584 -118.260871 170 8918ft 88kts
22-Oct-17 18:56 33.539507 -118.268073 201 8218ft 86kts
22-Oct-17 18:57 33.517654 -118.279614 211 7517ft 86kts
22-Oct-17 18:58 33.496529 -118.297243 221 6579ft 99kts
22-Oct-17 18:59 33.474878 -118.318325 221 5585ft 102kts
22-Oct-17 19:00 33.453085 -118.339609 222 4583ft 101kts
22-Oct-17 19:01 33.434409 -118.365174 239 3348ft 105kts
22-Oct-17 19:02 33.418462 -118.393538 234 2125ft 89kts
22-Oct-17 19:03 33.408423 -118.409820 239 1534ft 50kts
22-Oct-17 19:04 33.404261 -118.414987 176 1544ft 17kts
22-Oct-17 19:05 33.403507 -118.415264 297 1547ft 0kts

Navigation Log

Ident Type
Flight plan parsing failed, navigation log unavailable